sensor_id;sensor_type;location;lat;lon;timestamp;P1;durP1;ratioP1;P2;durP2;ratioP2
14080;SDS011;7116;52.152;5.392;2022-10-17T00:01:17;8.13;;;4.93;;
14080;SDS011;7116;52.152;5.392;2022-10-17T00:10:06;5.97;;;3.90;;
14080;SDS011;7116;52.152;5.392;2022-10-17T00:12:54;7.20;;;4.70;;
14080;SDS011;7116;52.152;5.392;2022-10-17T00:15:42;11.02;;;4.88;;
14080;SDS011;7116;52.152;5.392;2022-10-17T00:21:35;6.75;;;4.18;;
14080;SDS011;7116;52.152;5.392;2022-10-17T00:30:24;7.68;;;4.50;;
14080;SDS011;7116;52.152;5.392;2022-10-17T00:33:17;10.37;;;4.87;;
14080;SDS011;7116;52.152;5.392;2022-10-17T00:39:06;10.00;;;4.68;;
14080;SDS011;7116;52.152;5.392;2022-10-17T00:41:59;6.72;;;4.43;;
14080;SDS011;7116;52.152;5.392;2022-10-17T00:47:30;8.00;;;5.30;;
14080;SDS011;7116;52.152;5.392;2022-10-17T00:50:33;6.90;;;4.68;;
14080;SDS011;7116;52.152;5.392;2022-10-17T01:06:00;9.05;;;5.30;;
14080;SDS011;7116;52.152;5.392;2022-10-17T01:12:03;7.47;;;4.93;;
14080;SDS011;7116;52.152;5.392;2022-10-17T01:41:30;7.30;;;5.07;;
14080;SDS011;7116;52.152;5.392;2022-10-17T01:49:56;7.37;;;4.67;;
14080;SDS011;7116;52.152;5.392;2022-10-17T01:55:38;8.38;;;4.53;;
14080;SDS011;7116;52.152;5.392;2022-10-17T02:01:38;6.20;;;5.30;;
14080;SDS011;7116;52.152;5.392;2022-10-17T02:04:28;6.17;;;5.27;;
14080;SDS011;7116;52.152;5.392;2022-10-17T02:10:02;7.85;;;4.85;;
14080;SDS011;7116;52.152;5.392;2022-10-17T02:21:43;7.68;;;4.72;;
14080;SDS011;7116;52.152;5.392;2022-10-17T02:24:53;6.82;;;5.38;;
14080;SDS011;7116;52.152;5.392;2022-10-17T02:48:05;6.93;;;5.57;;
14080;SDS011;7116;52.152;5.392;2022-10-17T03:00:31;7.40;;;5.35;;
14080;SDS011;7116;52.152;5.392;2022-10-17T03:03:38;7.20;;;5.47;;
14080;SDS011;7116;52.152;5.392;2022-10-17T03:15:24;8.95;;;5.90;;
14080;SDS011;7116;52.152;5.392;2022-10-17T03:21:18;7.22;;;5.32;;
14080;SDS011;7116;52.152;5.392;2022-10-17T03:30:12;9.63;;;6.53;;
14080;SDS011;7116;52.152;5.392;2022-10-17T03:35:46;8.32;;;5.32;;
14080;SDS011;7116;52.152;5.392;2022-10-17T03:44:40;8.32;;;5.68;;
14080;SDS011;7116;52.152;5.392;2022-10-17T03:53:30;10.95;;;6.05;;
14080;SDS011;7116;52.152;5.392;2022-10-17T03:56:11;9.52;;;5.68;;
14080;SDS011;7116;52.152;5.392;2022-10-17T03:59:04;10.23;;;5.53;;
14080;SDS011;7116;52.152;5.392;2022-10-17T04:01:34;9.57;;;5.30;;
14080;SDS011;7116;52.152;5.392;2022-10-17T04:04:12;8.80;;;5.22;;
14080;SDS011;7116;52.152;5.392;2022-10-17T04:06:51;10.27;;;5.78;;
14080;SDS011;7116;52.152;5.392;2022-10-17T04:09:26;8.93;;;5.82;;
14080;SDS011;7116;52.152;5.392;2022-10-17T04:12:12;9.25;;;6.07;;
14080;SDS011;7116;52.152;5.392;2022-10-17T04:15:07;7.30;;;5.47;;
14080;SDS011;7116;52.152;5.392;2022-10-17T04:17:43;9.18;;;4.90;;
14080;SDS011;7116;52.152;5.392;2022-10-17T04:29:36;6.87;;;5.53;;
14080;SDS011;7116;52.152;5.392;2022-10-17T04:32:12;8.32;;;4.40;;
14080;SDS011;7116;52.152;5.392;2022-10-17T04:44:24;8.53;;;5.80;;
14080;SDS011;7116;52.152;5.392;2022-10-17T04:47:16;7.57;;;6.18;;
14080;SDS011;7116;52.152;5.392;2022-10-17T04:49:49;8.52;;;5.90;;
14080;SDS011;7116;52.152;5.392;2022-10-17T04:52:14;8.90;;;5.57;;
14080;SDS011;7116;52.152;5.392;2022-10-17T04:54:39;8.90;;;5.70;;
14080;SDS011;7116;52.152;5.392;2022-10-17T04:57:04;12.57;;;6.10;;
14080;SDS011;7116;52.152;5.392;2022-10-17T04:59:50;7.95;;;5.88;;
14080;SDS011;7116;52.152;5.392;2022-10-17T05:02:17;10.17;;;6.27;;
14080;SDS011;7116;52.152;5.392;2022-10-17T05:04:50;8.73;;;5.70;;
14080;SDS011;7116;52.152;5.392;2022-10-17T05:07:57;8.00;;;5.30;;
14080;SDS011;7116;52.152;5.392;2022-10-17T05:10:34;8.23;;;5.43;;
14080;SDS011;7116;52.152;5.392;2022-10-17T05:16:07;8.05;;;5.78;;
14080;SDS011;7116;52.152;5.392;2022-10-17T05:18:51;10.18;;;5.88;;
14080;SDS011;7116;52.152;5.392;2022-10-17T05:21:19;14.13;;;5.87;;
14080;SDS011;7116;52.152;5.392;2022-10-17T05:24:06;6.63;;;5.40;;
14080;SDS011;7116;52.152;5.392;2022-10-17T05:26:57;8.20;;;5.75;;
14080;SDS011;7116;52.152;5.392;2022-10-17T05:29:39;8.00;;;5.53;;
14080;SDS011;7116;52.152;5.392;2022-10-17T05:32:10;16.65;;;5.88;;
14080;SDS011;7116;52.152;5.392;2022-10-17T05:34:57;8.67;;;5.93;;
14080;SDS011;7116;52.152;5.392;2022-10-17T05:43:34;7.30;;;5.60;;
14080;SDS011;7116;52.152;5.392;2022-10-17T05:46:11;9.82;;;4.97;;
14080;SDS011;7116;52.152;5.392;2022-10-17T05:49:10;10.25;;;5.85;;
14080;SDS011;7116;52.152;5.392;2022-10-17T05:51:57;8.40;;;5.20;;
14080;SDS011;7116;52.152;5.392;2022-10-17T05:54:32;9.95;;;5.60;;
14080;SDS011;7116;52.152;5.392;2022-10-17T05:57:06;7.25;;;5.43;;
14080;SDS011;7116;52.152;5.392;2022-10-17T06:02:46;8.63;;;6.18;;
14080;SDS011;7116;52.152;5.392;2022-10-17T06:05:22;8.33;;;4.93;;
14080;SDS011;7116;52.152;5.392;2022-10-17T06:08:07;7.25;;;5.50;;
14080;SDS011;7116;52.152;5.392;2022-10-17T06:10:33;8.43;;;5.37;;
14080;SDS011;7116;52.152;5.392;2022-10-17T06:13:24;9.48;;;5.80;;
14080;SDS011;7116;52.152;5.392;2022-10-17T06:15:52;10.20;;;6.03;;
14080;SDS011;7116;52.152;5.392;2022-10-17T06:18:22;9.00;;;5.93;;
14080;SDS011;7116;52.152;5.392;2022-10-17T06:20:50;10.32;;;5.95;;
14080;SDS011;7116;52.152;5.392;2022-10-17T06:23:23;12.43;;;6.67;;
14080;SDS011;7116;52.152;5.392;2022-10-17T06:25:52;8.07;;;5.87;;
14080;SDS011;7116;52.152;5.392;2022-10-17T06:28:35;8.23;;;5.50;;
14080;SDS011;7116;52.152;5.392;2022-10-17T06:31:07;8.97;;;5.90;;
14080;SDS011;7116;52.152;5.392;2022-10-17T06:33:53;8.57;;;5.72;;
14080;SDS011;7116;52.152;5.392;2022-10-17T06:42:38;9.65;;;5.57;;
14080;SDS011;7116;52.152;5.392;2022-10-17T06:45:12;8.93;;;6.47;;
14080;SDS011;7116;52.152;5.392;2022-10-17T06:54:02;9.75;;;6.25;;
14080;SDS011;7116;52.152;5.392;2022-10-17T06:56:35;7.90;;;6.18;;
14080;SDS011;7116;52.152;5.392;2022-10-17T07:04:55;10.13;;;6.13;;
14080;SDS011;7116;52.152;5.392;2022-10-17T07:07:20;8.23;;;5.77;;
14080;SDS011;7116;52.152;5.392;2022-10-17T07:09:45;8.87;;;5.97;;
14080;SDS011;7116;52.152;5.392;2022-10-17T07:12:13;8.10;;;5.37;;
14080;SDS011;7116;52.152;5.392;2022-10-17T07:14:38;7.32;;;5.72;;
14080;SDS011;7116;52.152;5.392;2022-10-17T07:17:06;8.00;;;5.40;;
14080;SDS011;7116;52.152;5.392;2022-10-17T07:19:31;9.07;;;5.90;;
14080;SDS011;7116;52.152;5.392;2022-10-17T07:21:59;7.72;;;5.65;;
14080;SDS011;7116;52.152;5.392;2022-10-17T07:24:27;6.90;;;5.40;;
14080;SDS011;7116;52.152;5.392;2022-10-17T07:26:52;9.60;;;5.20;;
14080;SDS011;7116;52.152;5.392;2022-10-17T07:29:17;7.87;;;6.03;;
14080;SDS011;7116;52.152;5.392;2022-10-17T07:31:42;9.37;;;6.00;;
14080;SDS011;7116;52.152;5.392;2022-10-17T07:34:09;11.20;;;5.70;;
14080;SDS011;7116;52.152;5.392;2022-10-17T07:36:34;10.37;;;6.07;;
14080;SDS011;7116;52.152;5.392;2022-10-17T07:39:02;9.73;;;6.82;;
14080;SDS011;7116;52.152;5.392;2022-10-17T07:41:30;8.27;;;6.40;;
14080;SDS011;7116;52.152;5.392;2022-10-17T07:43:55;10.43;;;5.70;;
14080;SDS011;7116;52.152;5.392;2022-10-17T07:46:20;10.10;;;4.93;;
14080;SDS011;7116;52.152;5.392;2022-10-17T07:48:45;15.40;;;6.30;;
14080;SDS011;7116;52.152;5.392;2022-10-17T07:51:10;7.63;;;4.97;;
14080;SDS011;7116;52.152;5.392;2022-10-17T07:53:39;10.47;;;5.57;;
14080;SDS011;7116;52.152;5.392;2022-10-17T07:56:08;9.07;;;5.90;;
14080;SDS011;7116;52.152;5.392;2022-10-17T07:58:41;8.85;;;6.07;;
14080;SDS011;7116;52.152;5.392;2022-10-17T08:01:07;7.75;;;5.63;;
14080;SDS011;7116;52.152;5.392;2022-10-17T08:03:35;9.50;;;6.63;;
14080;SDS011;7116;52.152;5.392;2022-10-17T08:06:00;8.27;;;5.83;;
14080;SDS011;7116;52.152;5.392;2022-10-17T08:08:26;11.35;;;5.97;;
14080;SDS011;7116;52.152;5.392;2022-10-17T08:10:52;7.63;;;5.77;;
14080;SDS011;7116;52.152;5.392;2022-10-17T08:13:18;10.18;;;5.63;;
14080;SDS011;7116;52.152;5.392;2022-10-17T08:15:50;9.55;;;5.38;;
14080;SDS011;7116;52.152;5.392;2022-10-17T08:18:23;7.68;;;5.10;;
14080;SDS011;7116;52.152;5.392;2022-10-17T08:20:53;7.70;;;4.77;;
14080;SDS011;7116;52.152;5.392;2022-10-17T08:23:18;8.27;;;5.25;;
14080;SDS011;7116;52.152;5.392;2022-10-17T08:29:13;10.05;;;5.55;;
14080;SDS011;7116;52.152;5.392;2022-10-17T08:34:46;10.20;;;5.90;;
14080;SDS011;7116;52.152;5.392;2022-10-17T08:37:29;12.18;;;4.80;;
14080;SDS011;7116;52.152;5.392;2022-10-17T08:46:37;9.70;;;5.50;;
14080;SDS011;7116;52.152;5.392;2022-10-17T08:49:05;5.60;;;4.30;;
14080;SDS011;7116;52.152;5.392;2022-10-17T08:52:01;7.72;;;4.97;;
14080;SDS011;7116;52.152;5.392;2022-10-17T08:54:34;7.10;;;4.82;;
14080;SDS011;7116;52.152;5.392;2022-10-17T08:57:12;10.55;;;5.60;;
14080;SDS011;7116;52.152;5.392;2022-10-17T09:14:40;9.13;;;4.60;;
14080;SDS011;7116;52.152;5.392;2022-10-17T09:17:37;7.67;;;4.40;;
14080;SDS011;7116;52.152;5.392;2022-10-17T09:23:20;7.15;;;4.20;;
14080;SDS011;7116;52.152;5.392;2022-10-17T09:25:19;9.52;;;5.53;;
14080;SDS011;7116;52.152;5.392;2022-10-17T09:27:46;7.90;;;5.63;;
14080;SDS011;7116;52.152;5.392;2022-10-17T09:32:38;8.87;;;5.00;;
14080;SDS011;7116;52.152;5.392;2022-10-17T09:35:06;8.63;;;5.00;;
14080;SDS011;7116;52.152;5.392;2022-10-17T09:37:35;9.82;;;5.25;;
14080;SDS011;7116;52.152;5.392;2022-10-17T09:40:00;12.83;;;5.17;;
14080;SDS011;7116;52.152;5.392;2022-10-17T09:42:25;8.33;;;5.07;;
14080;SDS011;7116;52.152;5.392;2022-10-17T09:45:11;10.40;;;5.55;;
14080;SDS011;7116;52.152;5.392;2022-10-17T09:47:38;10.97;;;5.23;;
14080;SDS011;7116;52.152;5.392;2022-10-17T09:50:19;7.55;;;4.93;;
14080;SDS011;7116;52.152;5.392;2022-10-17T09:52:45;8.90;;;4.57;;
14080;SDS011;7116;52.152;5.392;2022-10-17T09:57:58;8.13;;;4.57;;
14080;SDS011;7116;52.152;5.392;2022-10-17T10:00:28;9.90;;;4.30;;
14080;SDS011;7116;52.152;5.392;2022-10-17T10:03:07;10.00;;;4.75;;
14080;SDS011;7116;52.152;5.392;2022-10-17T10:05:37;9.02;;;5.63;;
14080;SDS011;7116;52.152;5.392;2022-10-17T10:08:04;7.13;;;5.07;;
14080;SDS011;7116;52.152;5.392;2022-10-17T10:10:29;6.70;;;4.65;;
14080;SDS011;7116;52.152;5.392;2022-10-17T10:13:06;8.17;;;4.80;;
14080;SDS011;7116;52.152;5.392;2022-10-17T10:15:38;7.45;;;4.68;;
14080;SDS011;7116;52.152;5.392;2022-10-17T10:21:01;7.05;;;4.40;;
14080;SDS011;7116;52.152;5.392;2022-10-17T10:23:27;8.80;;;5.53;;
14080;SDS011;7116;52.152;5.392;2022-10-17T10:26:02;6.57;;;4.77;;
14080;SDS011;7116;52.152;5.392;2022-10-17T10:28:32;7.63;;;4.70;;
14080;SDS011;7116;52.152;5.392;2022-10-17T10:30:59;6.53;;;4.53;;
14080;SDS011;7116;52.152;5.392;2022-10-17T10:33:25;5.82;;;4.60;;
14080;SDS011;7116;52.152;5.392;2022-10-17T10:35:52;5.97;;;4.80;;
14080;SDS011;7116;52.152;5.392;2022-10-17T10:38:19;7.07;;;4.25;;
14080;SDS011;7116;52.152;5.392;2022-10-17T10:40:54;5.67;;;4.77;;
14080;SDS011;7116;52.152;5.392;2022-10-17T10:46:26;7.28;;;4.55;;
14080;SDS011;7116;52.152;5.392;2022-10-17T10:48:51;6.78;;;4.55;;
14080;SDS011;7116;52.152;5.392;2022-10-17T10:51:18;7.53;;;4.80;;
14080;SDS011;7116;52.152;5.392;2022-10-17T10:53:47;6.25;;;4.55;;
14080;SDS011;7116;52.152;5.392;2022-10-17T11:01:20;6.25;;;4.30;;
14080;SDS011;7116;52.152;5.392;2022-10-17T11:06:25;6.55;;;4.22;;
14080;SDS011;7116;52.152;5.392;2022-10-17T11:08:56;7.57;;;5.07;;
14080;SDS011;7116;52.152;5.392;2022-10-17T11:11:33;9.95;;;4.28;;
14080;SDS011;7116;52.152;5.392;2022-10-17T11:14:13;5.57;;;4.32;;
14080;SDS011;7116;52.152;5.392;2022-10-17T11:16:48;7.13;;;4.77;;
14080;SDS011;7116;52.152;5.392;2022-10-17T11:19:24;9.00;;;4.88;;
14080;SDS011;7116;52.152;5.392;2022-10-17T11:22:08;7.25;;;3.95;;
14080;SDS011;7116;52.152;5.392;2022-10-17T11:27:06;5.40;;;4.53;;
14080;SDS011;7116;52.152;5.392;2022-10-17T11:29:33;6.60;;;4.37;;
14080;SDS011;7116;52.152;5.392;2022-10-17T11:32:07;6.28;;;4.50;;
14080;SDS011;7116;52.152;5.392;2022-10-17T11:34:35;6.13;;;4.50;;
14080;SDS011;7116;52.152;5.392;2022-10-17T11:37:03;6.57;;;4.03;;
14080;SDS011;7116;52.152;5.392;2022-10-17T11:39:36;5.28;;;4.20;;
14080;SDS011;7116;52.152;5.392;2022-10-17T11:42:04;6.00;;;4.60;;
14080;SDS011;7116;52.152;5.392;2022-10-17T11:44:34;9.45;;;5.03;;
14080;SDS011;7116;52.152;5.392;2022-10-17T11:47:05;6.67;;;4.57;;
14080;SDS011;7116;52.152;5.392;2022-10-17T11:49:33;5.70;;;4.55;;
14080;SDS011;7116;52.152;5.392;2022-10-17T11:54:38;6.18;;;4.40;;
14080;SDS011;7116;52.152;5.392;2022-10-17T12:04:58;5.78;;;4.38;;
14080;SDS011;7116;52.152;5.392;2022-10-17T12:07:35;8.50;;;4.50;;
14080;SDS011;7116;52.152;5.392;2022-10-17T12:10:20;7.00;;;4.22;;
14080;SDS011;7116;52.152;5.392;2022-10-17T12:12:47;6.00;;;4.60;;
14080;SDS011;7116;52.152;5.392;2022-10-17T12:17:45;6.20;;;5.10;;
14080;SDS011;7116;52.152;5.392;2022-10-17T12:23:45;7.03;;;4.90;;
14080;SDS011;7116;52.152;5.392;2022-10-17T12:28:15;4.82;;;4.18;;
14080;SDS011;7116;52.152;5.392;2022-10-17T12:30:51;5.55;;;4.30;;
14080;SDS011;7116;52.152;5.392;2022-10-17T12:35:50;5.17;;;4.10;;
14080;SDS011;7116;52.152;5.392;2022-10-17T12:45:43;8.77;;;4.60;;
14080;SDS011;7116;52.152;5.392;2022-10-17T12:48:10;5.80;;;4.85;;
14080;SDS011;7116;52.152;5.392;2022-10-17T12:53:19;6.18;;;4.15;;
14080;SDS011;7116;52.152;5.392;2022-10-17T12:55:48;5.97;;;3.80;;
14080;SDS011;7116;52.152;5.392;2022-10-17T12:58:15;4.30;;;3.35;;
14080;SDS011;7116;52.152;5.392;2022-10-17T13:00:42;5.00;;;3.00;;
14080;SDS011;7116;52.152;5.392;2022-10-17T13:05:41;4.15;;;3.33;;
14080;SDS011;7116;52.152;5.392;2022-10-17T13:08:12;5.15;;;3.35;;
14080;SDS011;7116;52.152;5.392;2022-10-17T13:10:39;5.70;;;3.13;;
14080;SDS011;7116;52.152;5.392;2022-10-17T13:13:06;3.90;;;2.67;;
14080;SDS011;7116;52.152;5.392;2022-10-17T13:15:32;4.07;;;2.90;;
14080;SDS011;7116;52.152;5.392;2022-10-17T13:17:59;4.07;;;3.00;;
14080;SDS011;7116;52.152;5.392;2022-10-17T13:20:25;5.32;;;3.20;;
14080;SDS011;7116;52.152;5.392;2022-10-17T13:22:54;3.80;;;3.30;;
14080;SDS011;7116;52.152;5.392;2022-10-17T13:25:20;3.60;;;2.47;;
14080;SDS011;7116;52.152;5.392;2022-10-17T13:27:46;3.75;;;3.10;;
14080;SDS011;7116;52.152;5.392;2022-10-17T13:32:46;4.60;;;3.78;;
14080;SDS011;7116;52.152;5.392;2022-10-17T13:35:12;7.00;;;3.97;;
14080;SDS011;7116;52.152;5.392;2022-10-17T13:37:38;6.28;;;3.22;;
14080;SDS011;7116;52.152;5.392;2022-10-17T13:40:05;6.03;;;3.97;;
14080;SDS011;7116;52.152;5.392;2022-10-17T13:42:37;6.70;;;3.67;;
14080;SDS011;7116;52.152;5.392;2022-10-17T13:45:03;5.07;;;3.45;;
14080;SDS011;7116;52.152;5.392;2022-10-17T13:47:29;6.70;;;3.83;;
14080;SDS011;7116;52.152;5.392;2022-10-17T13:49:56;4.97;;;3.60;;
14080;SDS011;7116;52.152;5.392;2022-10-17T13:52:23;5.00;;;4.03;;
14080;SDS011;7116;52.152;5.392;2022-10-17T13:54:50;4.97;;;3.55;;
14080;SDS011;7116;52.152;5.392;2022-10-17T13:57:25;5.03;;;3.77;;
14080;SDS011;7116;52.152;5.392;2022-10-17T13:59:56;5.00;;;3.60;;
14080;SDS011;7116;52.152;5.392;2022-10-17T14:02:22;7.18;;;4.00;;
14080;SDS011;7116;52.152;5.392;2022-10-17T14:07:42;6.18;;;3.72;;
14080;SDS011;7116;52.152;5.392;2022-10-17T14:10:18;6.67;;;4.00;;
14080;SDS011;7116;52.152;5.392;2022-10-17T14:12:43;7.25;;;4.55;;
14080;SDS011;7116;52.152;5.392;2022-10-17T14:15:08;5.17;;;4.07;;
14080;SDS011;7116;52.152;5.392;2022-10-17T14:17:37;5.78;;;4.10;;
14080;SDS011;7116;52.152;5.392;2022-10-17T14:20:03;9.77;;;4.63;;
14080;SDS011;7116;52.152;5.392;2022-10-17T14:22:32;7.23;;;4.60;;
14080;SDS011;7116;52.152;5.392;2022-10-17T14:25:01;10.10;;;5.15;;
14080;SDS011;7116;52.152;5.392;2022-10-17T14:27:34;5.82;;;4.80;;
14080;SDS011;7116;52.152;5.392;2022-10-17T14:30:03;6.13;;;4.63;;
14080;SDS011;7116;52.152;5.392;2022-10-17T14:32:35;7.15;;;4.43;;
14080;SDS011;7116;52.152;5.392;2022-10-17T14:35:02;9.20;;;4.70;;
14080;SDS011;7116;52.152;5.392;2022-10-17T14:37:44;9.82;;;4.90;;
14080;SDS011;7116;52.152;5.392;2022-10-17T14:40:14;7.80;;;4.88;;
14080;SDS011;7116;52.152;5.392;2022-10-17T14:42:40;8.38;;;4.90;;
14080;SDS011;7116;52.152;5.392;2022-10-17T14:45:06;9.60;;;4.93;;
14080;SDS011;7116;52.152;5.392;2022-10-17T14:47:32;6.45;;;4.68;;
14080;SDS011;7116;52.152;5.392;2022-10-17T14:50:31;7.80;;;4.23;;
14080;SDS011;7116;52.152;5.392;2022-10-17T14:55:28;6.30;;;4.50;;
14080;SDS011;7116;52.152;5.392;2022-10-17T14:57:54;10.27;;;4.90;;
14080;SDS011;7116;52.152;5.392;2022-10-17T15:00:19;7.37;;;4.70;;
14080;SDS011;7116;52.152;5.392;2022-10-17T15:02:45;8.73;;;5.45;;
14080;SDS011;7116;52.152;5.392;2022-10-17T15:05:11;9.50;;;4.88;;
14080;SDS011;7116;52.152;5.392;2022-10-17T15:07:37;8.80;;;4.50;;
14080;SDS011;7116;52.152;5.392;2022-10-17T15:10:02;7.60;;;5.10;;
14080;SDS011;7116;52.152;5.392;2022-10-17T15:12:28;6.57;;;3.87;;
14080;SDS011;7116;52.152;5.392;2022-10-17T15:14:53;7.13;;;4.33;;
14080;SDS011;7116;52.152;5.392;2022-10-17T15:17:29;9.37;;;4.40;;
14080;SDS011;7116;52.152;5.392;2022-10-17T15:19:55;8.45;;;4.47;;
14080;SDS011;7116;52.152;5.392;2022-10-17T15:22:20;8.37;;;5.00;;
14080;SDS011;7116;52.152;5.392;2022-10-17T15:24:45;7.90;;;5.00;;
14080;SDS011;7116;52.152;5.392;2022-10-17T15:27:20;7.17;;;4.27;;
14080;SDS011;7116;52.152;5.392;2022-10-17T15:29:47;6.75;;;4.38;;
14080;SDS011;7116;52.152;5.392;2022-10-17T15:32:12;8.80;;;5.10;;
14080;SDS011;7116;52.152;5.392;2022-10-17T15:34:38;7.83;;;4.63;;
14080;SDS011;7116;52.152;5.392;2022-10-17T15:37:03;7.70;;;5.32;;
14080;SDS011;7116;52.152;5.392;2022-10-17T15:39:29;10.80;;;4.78;;
14080;SDS011;7116;52.152;5.392;2022-10-17T15:41:54;9.85;;;4.90;;
14080;SDS011;7116;52.152;5.392;2022-10-17T15:44:19;7.25;;;4.75;;
14080;SDS011;7116;52.152;5.392;2022-10-17T15:46:45;9.27;;;4.67;;
14080;SDS011;7116;52.152;5.392;2022-10-17T15:49:11;8.43;;;4.53;;
14080;SDS011;7116;52.152;5.392;2022-10-17T15:51:37;7.03;;;4.73;;
14080;SDS011;7116;52.152;5.392;2022-10-17T15:54:02;6.17;;;3.80;;
14080;SDS011;7116;52.152;5.392;2022-10-17T15:56:33;7.05;;;4.80;;
14080;SDS011;7116;52.152;5.392;2022-10-17T15:59:01;5.95;;;4.18;;
14080;SDS011;7116;52.152;5.392;2022-10-17T16:01:27;10.15;;;4.80;;
14080;SDS011;7116;52.152;5.392;2022-10-17T16:03:53;6.38;;;4.57;;
14080;SDS011;7116;52.152;5.392;2022-10-17T16:06:19;8.13;;;4.73;;
14080;SDS011;7116;52.152;5.392;2022-10-17T16:08:45;9.52;;;4.68;;
14080;SDS011;7116;52.152;5.392;2022-10-17T16:13:47;10.88;;;5.30;;
14080;SDS011;7116;52.152;5.392;2022-10-17T16:16:13;9.90;;;5.28;;
14080;SDS011;7116;52.152;5.392;2022-10-17T16:18:38;7.90;;;5.03;;
14080;SDS011;7116;52.152;5.392;2022-10-17T16:21:04;7.50;;;4.50;;
14080;SDS011;7116;52.152;5.392;2022-10-17T16:23:29;8.13;;;4.27;;
14080;SDS011;7116;52.152;5.392;2022-10-17T16:25:56;6.75;;;4.47;;
14080;SDS011;7116;52.152;5.392;2022-10-17T16:28:22;6.80;;;4.63;;
14080;SDS011;7116;52.152;5.392;2022-10-17T16:30:47;8.37;;;4.40;;
14080;SDS011;7116;52.152;5.392;2022-10-17T16:33:13;6.97;;;4.73;;
14080;SDS011;7116;52.152;5.392;2022-10-17T16:35:38;9.13;;;4.63;;
14080;SDS011;7116;52.152;5.392;2022-10-17T16:38:04;6.27;;;4.90;;
14080;SDS011;7116;52.152;5.392;2022-10-17T16:40:30;7.73;;;4.47;;
14080;SDS011;7116;52.152;5.392;2022-10-17T16:42:55;7.10;;;4.60;;
14080;SDS011;7116;52.152;5.392;2022-10-17T16:45:21;9.10;;;6.30;;
14080;SDS011;7116;52.152;5.392;2022-10-17T16:47:47;18.87;;;11.00;;
14080;SDS011;7116;52.152;5.392;2022-10-17T16:50:12;19.35;;;13.18;;
14080;SDS011;7116;52.152;5.392;2022-10-17T16:52:40;14.35;;;10.05;;
14080;SDS011;7116;52.152;5.392;2022-10-17T16:55:06;16.90;;;11.50;;
14080;SDS011;7116;52.152;5.392;2022-10-17T16:57:31;11.70;;;8.03;;
14080;SDS011;7116;52.152;5.392;2022-10-17T16:59:56;10.00;;;7.07;;
14080;SDS011;7116;52.152;5.392;2022-10-17T17:02:24;9.60;;;6.80;;
14080;SDS011;7116;52.152;5.392;2022-10-17T17:04:49;10.80;;;6.77;;
14080;SDS011;7116;52.152;5.392;2022-10-17T17:07:14;8.77;;;6.00;;
14080;SDS011;7116;52.152;5.392;2022-10-17T17:09:42;8.07;;;6.00;;
14080;SDS011;7116;52.152;5.392;2022-10-17T17:12:07;10.93;;;6.93;;
14080;SDS011;7116;52.152;5.392;2022-10-17T17:14:34;10.80;;;8.60;;
14080;SDS011;7116;52.152;5.392;2022-10-17T17:17:00;10.18;;;6.82;;
14080;SDS011;7116;52.152;5.392;2022-10-17T17:19:25;12.23;;;8.30;;
14080;SDS011;7116;52.152;5.392;2022-10-17T17:21:50;10.37;;;8.53;;
14080;SDS011;7116;52.152;5.392;2022-10-17T17:24:16;11.03;;;7.83;;
14080;SDS011;7116;52.152;5.392;2022-10-17T17:26:42;10.95;;;7.45;;
14080;SDS011;7116;52.152;5.392;2022-10-17T17:29:07;15.53;;;8.27;;
14080;SDS011;7116;52.152;5.392;2022-10-17T17:31:33;9.83;;;7.50;;
14080;SDS011;7116;52.152;5.392;2022-10-17T17:33:59;10.85;;;8.65;;
14080;SDS011;7116;52.152;5.392;2022-10-17T17:36:25;13.77;;;10.03;;
14080;SDS011;7116;52.152;5.392;2022-10-17T17:38:52;9.80;;;8.80;;
14080;SDS011;7116;52.152;5.392;2022-10-17T17:41:18;9.35;;;7.78;;
14080;SDS011;7116;52.152;5.392;2022-10-17T17:43:44;8.67;;;6.30;;
14080;SDS011;7116;52.152;5.392;2022-10-17T17:46:10;8.40;;;6.60;;
14080;SDS011;7116;52.152;5.392;2022-10-17T17:48:38;10.70;;;6.73;;
14080;SDS011;7116;52.152;5.392;2022-10-17T17:51:04;9.10;;;6.20;;
14080;SDS011;7116;52.152;5.392;2022-10-17T17:53:29;7.03;;;5.88;;
14080;SDS011;7116;52.152;5.392;2022-10-17T17:56:04;9.33;;;6.33;;
14080;SDS011;7116;52.152;5.392;2022-10-17T17:58:32;9.27;;;5.43;;
14080;SDS011;7116;52.152;5.392;2022-10-17T18:00:57;11.43;;;5.40;;
14080;SDS011;7116;52.152;5.392;2022-10-17T18:03:23;6.93;;;5.37;;
14080;SDS011;7116;52.152;5.392;2022-10-17T18:05:48;9.63;;;6.13;;
14080;SDS011;7116;52.152;5.392;2022-10-17T18:08:14;7.67;;;5.97;;
14080;SDS011;7116;52.152;5.392;2022-10-17T18:10:39;9.97;;;6.83;;
14080;SDS011;7116;52.152;5.392;2022-10-17T18:13:04;10.85;;;7.55;;
14080;SDS011;7116;52.152;5.392;2022-10-17T18:15:29;12.75;;;8.80;;
14080;SDS011;7116;52.152;5.392;2022-10-17T18:17:54;10.00;;;7.87;;
14080;SDS011;7116;52.152;5.392;2022-10-17T18:20:19;13.93;;;6.57;;
14080;SDS011;7116;52.152;5.392;2022-10-17T18:22:45;11.57;;;7.60;;
14080;SDS011;7116;52.152;5.392;2022-10-17T18:25:10;10.70;;;7.10;;
14080;SDS011;7116;52.152;5.392;2022-10-17T18:27:35;14.70;;;8.07;;
14080;SDS011;7116;52.152;5.392;2022-10-17T18:30:00;17.23;;;10.80;;
14080;SDS011;7116;52.152;5.392;2022-10-17T18:32:29;11.98;;;8.27;;
14080;SDS011;7116;52.152;5.392;2022-10-17T18:34:57;14.80;;;8.30;;
14080;SDS011;7116;52.152;5.392;2022-10-17T18:37:22;18.13;;;8.67;;
14080;SDS011;7116;52.152;5.392;2022-10-17T18:39:47;18.57;;;8.83;;
14080;SDS011;7116;52.152;5.392;2022-10-17T18:42:15;11.43;;;7.65;;
14080;SDS011;7116;52.152;5.392;2022-10-17T18:44:40;12.53;;;8.87;;
14080;SDS011;7116;52.152;5.392;2022-10-17T18:47:06;13.00;;;8.80;;
14080;SDS011;7116;52.152;5.392;2022-10-17T18:49:31;14.67;;;9.80;;
14080;SDS011;7116;52.152;5.392;2022-10-17T18:51:56;18.23;;;10.47;;
14080;SDS011;7116;52.152;5.392;2022-10-17T18:54:24;14.63;;;9.87;;
14080;SDS011;7116;52.152;5.392;2022-10-17T18:56:50;13.27;;;9.47;;
14080;SDS011;7116;52.152;5.392;2022-10-17T18:59:16;13.82;;;8.30;;
14080;SDS011;7116;52.152;5.392;2022-10-17T19:01:49;11.80;;;8.20;;
14080;SDS011;7116;52.152;5.392;2022-10-17T19:04:14;12.65;;;9.02;;
14080;SDS011;7116;52.152;5.392;2022-10-17T19:06:43;14.73;;;10.63;;
14080;SDS011;7116;52.152;5.392;2022-10-17T19:09:09;14.47;;;8.67;;
14080;SDS011;7116;52.152;5.392;2022-10-17T19:11:34;10.63;;;7.78;;
14080;SDS011;7116;52.152;5.392;2022-10-17T19:14:00;11.27;;;6.80;;
14080;SDS011;7116;52.152;5.392;2022-10-17T19:16:28;12.20;;;7.33;;
14080;SDS011;7116;52.152;5.392;2022-10-17T19:18:55;11.07;;;7.32;;
14080;SDS011;7116;52.152;5.392;2022-10-17T19:21:20;12.07;;;8.15;;
14080;SDS011;7116;52.152;5.392;2022-10-17T19:23:56;13.47;;;7.90;;
14080;SDS011;7116;52.152;5.392;2022-10-17T19:26:22;15.68;;;8.60;;
14080;SDS011;7116;52.152;5.392;2022-10-17T19:28:47;11.23;;;7.83;;
14080;SDS011;7116;52.152;5.392;2022-10-17T19:31:15;14.85;;;6.88;;
14080;SDS011;7116;52.152;5.392;2022-10-17T19:34:01;12.18;;;8.15;;
14080;SDS011;7116;52.152;5.392;2022-10-17T19:39:52;11.65;;;8.70;;
14080;SDS011;7116;52.152;5.392;2022-10-17T19:42:29;11.87;;;8.80;;
14080;SDS011;7116;52.152;5.392;2022-10-17T19:45:08;13.60;;;9.73;;
14080;SDS011;7116;52.152;5.392;2022-10-17T19:47:35;12.00;;;8.80;;
14080;SDS011;7116;52.152;5.392;2022-10-17T19:50:01;17.27;;;9.40;;
14080;SDS011;7116;52.152;5.392;2022-10-17T19:52:29;16.07;;;9.37;;
14080;SDS011;7116;52.152;5.392;2022-10-17T19:55:17;13.77;;;9.05;;
14080;SDS011;7116;52.152;5.392;2022-10-17T19:57:52;12.32;;;8.82;;
14080;SDS011;7116;52.152;5.392;2022-10-17T20:00:25;11.80;;;8.27;;
14080;SDS011;7116;52.152;5.392;2022-10-17T20:03:17;11.43;;;8.17;;
14080;SDS011;7116;52.152;5.392;2022-10-17T20:05:58;13.57;;;8.55;;
14080;SDS011;7116;52.152;5.392;2022-10-17T20:08:26;13.40;;;8.25;;
14080;SDS011;7116;52.152;5.392;2022-10-17T20:11:04;15.68;;;9.10;;
14080;SDS011;7116;52.152;5.392;2022-10-17T20:13:43;14.73;;;9.32;;
14080;SDS011;7116;52.152;5.392;2022-10-17T20:16:10;15.97;;;8.70;;
14080;SDS011;7116;52.152;5.392;2022-10-17T20:18:40;15.63;;;10.32;;
14080;SDS011;7116;52.152;5.392;2022-10-17T20:21:19;13.18;;;9.77;;
14080;SDS011;7116;52.152;5.392;2022-10-17T20:23:49;13.75;;;9.27;;